createdAt,value
2023-04-24T00:02:11.965Z,99.90
2023-04-24T00:04:42.406Z,99.90
2023-04-24T00:07:09.767Z,99.90
2023-04-24T00:09:36.750Z,99.90
2023-04-24T00:12:05.390Z,99.90
2023-04-24T00:14:32.754Z,99.90
2023-04-24T00:16:59.646Z,99.90
2023-04-24T00:19:26.638Z,99.90
2023-04-24T00:21:53.560Z,99.90
2023-04-24T00:24:21.320Z,99.90
2023-04-24T00:26:48.375Z,99.90
2023-04-24T00:29:15.272Z,99.90
2023-04-24T00:31:42.244Z,99.90
2023-04-24T00:34:09.344Z,99.90
2023-04-24T00:36:36.243Z,99.90
2023-04-24T00:39:03.286Z,99.90
2023-04-24T00:41:31.290Z,99.90
2023-04-24T00:43:58.284Z,99.90
2023-04-24T00:46:25.466Z,99.90
2023-04-24T00:48:52.805Z,99.90
2023-04-24T00:51:20.839Z,99.90
2023-04-24T00:53:47.796Z,99.90
2023-04-24T00:56:15.053Z,99.90
2023-04-24T00:58:43.528Z,99.90
2023-04-24T01:01:12.827Z,99.90
2023-04-24T01:03:41.426Z,99.90
2023-04-24T01:06:11.224Z,99.90
2023-04-24T01:08:40.677Z,99.90
2023-04-24T01:11:07.922Z,99.90
2023-04-24T01:13:35.777Z,99.90
2023-04-24T01:16:03.121Z,99.90
2023-04-24T01:18:30.401Z,99.90
2023-04-24T01:21:04.318Z,99.90
2023-04-24T01:23:31.337Z,99.90
2023-04-24T01:25:58.412Z,99.90
2023-04-24T01:28:25.484Z,99.90
2023-04-24T01:30:53.580Z,99.90
2023-04-24T01:33:22.971Z,99.90
2023-04-24T01:35:51.253Z,99.90
2023-04-24T01:38:18.167Z,99.90
2023-04-24T01:40:45.064Z,99.90
2023-04-24T01:43:13.973Z,99.90
2023-04-24T01:45:40.927Z,99.90
2023-04-24T01:48:08.065Z,99.90
2023-04-24T01:50:35.213Z,99.90
2023-04-24T01:53:02.131Z,99.90
2023-04-24T01:55:29.054Z,99.90
2023-04-24T01:57:57.932Z,99.90
2023-04-24T02:00:25.835Z,99.90
2023-04-24T02:02:53.074Z,99.90
2023-04-24T02:05:20.229Z,99.90
2023-04-24T02:07:47.195Z,99.90
2023-04-24T02:10:14.140Z,99.90
2023-04-24T02:12:41.048Z,99.90
2023-04-24T02:15:08.461Z,99.90
2023-04-24T02:17:35.395Z,99.90
2023-04-24T02:20:02.287Z,99.90
2023-04-24T02:22:29.130Z,99.90
2023-04-24T02:24:56.276Z,99.90
2023-04-24T02:27:23.168Z,99.90
2023-04-24T02:29:50.039Z,99.90
2023-04-24T02:32:17.024Z,99.90
2023-04-24T02:34:43.996Z,99.90
2023-04-24T02:37:11.040Z,99.90
2023-04-24T02:39:37.914Z,99.90
2023-04-24T02:42:04.947Z,99.90
2023-04-24T02:44:31.893Z,99.90
2023-04-24T02:46:58.821Z,99.90
2023-04-24T02:49:25.762Z,99.90
2023-04-24T02:51:52.700Z,99.90
2023-04-24T02:54:19.543Z,99.90
2023-04-24T02:56:46.381Z,99.90
2023-04-24T02:59:13.251Z,99.90
2023-04-24T03:01:40.366Z,99.90
2023-04-24T03:04:07.820Z,99.90
2023-04-24T03:06:36.272Z,99.90
2023-04-24T03:09:04.469Z,99.90
2023-04-24T03:11:31.436Z,99.90
2023-04-24T03:13:58.376Z,99.90
2023-04-24T03:16:25.376Z,99.90
2023-04-24T03:18:53.018Z,99.90
2023-04-24T03:21:20.157Z,99.90
2023-04-24T03:23:47.111Z,99.90
2023-04-24T03:26:13.955Z,99.90
2023-04-24T03:28:40.870Z,99.90
2023-04-24T03:31:07.799Z,99.90
2023-04-24T03:33:34.712Z,99.90
2023-04-24T03:36:01.574Z,99.90
2023-04-24T03:38:28.460Z,99.90
2023-04-24T03:40:55.650Z,99.90
2023-04-24T03:43:22.564Z,99.90
2023-04-24T03:45:49.611Z,99.90
2023-04-24T03:48:16.500Z,99.90
2023-04-24T03:50:43.375Z,99.90
2023-04-24T03:53:10.422Z,99.90
2023-04-24T03:55:37.331Z,99.90
2023-04-24T03:58:04.209Z,99.90
2023-04-24T04:00:32.904Z,99.90
2023-04-24T04:03:00.208Z,99.90
2023-04-24T04:05:27.356Z,99.90
2023-04-24T04:07:54.250Z,99.90
2023-04-24T04:10:21.578Z,99.90
2023-04-24T04:12:48.613Z,99.90
2023-04-24T04:15:15.822Z,99.90
2023-04-24T04:17:42.753Z,99.90
2023-04-24T04:20:11.070Z,99.90
2023-04-24T04:22:38.429Z,99.90
2023-04-24T04:25:06.176Z,99.90
2023-04-24T04:27:33.350Z,99.90
2023-04-24T04:30:05.400Z,99.90
2023-04-24T04:32:36.756Z,99.90
2023-04-24T04:35:04.449Z,99.90
2023-04-24T04:37:34.874Z,99.90
2023-04-24T04:40:12.935Z,99.90
2023-04-24T04:42:41.263Z,99.90
2023-04-24T04:45:09.802Z,99.90
2023-04-24T04:47:36.832Z,99.90
2023-04-24T04:50:06.251Z,99.90
2023-04-24T04:52:33.129Z,99.90
2023-04-24T04:54:59.983Z,99.90
2023-04-24T04:57:27.086Z,99.90
2023-04-24T04:59:54.077Z,99.90
2023-04-24T05:02:21.565Z,99.90
2023-04-24T05:04:48.748Z,99.90
2023-04-24T05:07:15.814Z,99.90
2023-04-24T05:09:42.904Z,99.90
2023-04-24T05:12:09.971Z,99.90
2023-04-24T05:14:36.917Z,99.90
2023-04-24T05:17:04.024Z,99.90
2023-04-24T05:19:33.761Z,99.90
2023-04-24T05:22:03.992Z,99.90
2023-04-24T05:24:31.009Z,99.90
2023-04-24T05:26:59.520Z,99.90
2023-04-24T05:29:27.290Z,99.90
2023-04-24T05:31:54.464Z,99.90
2023-04-24T05:34:21.345Z,99.90
2023-04-24T05:36:48.687Z,99.90
2023-04-24T05:39:16.089Z,99.90
2023-04-24T05:41:43.257Z,99.90
2023-04-24T05:44:10.453Z,99.90
2023-04-24T05:46:37.489Z,99.90
2023-04-24T05:49:04.506Z,99.90
2023-04-24T05:51:32.560Z,99.90
2023-04-24T05:53:59.469Z,99.90
2023-04-24T05:56:26.392Z,99.90
2023-04-24T05:58:53.293Z,99.90
2023-04-24T06:01:20.603Z,99.90
2023-04-24T06:03:47.822Z,99.90
2023-04-24T06:06:15.018Z,99.90
2023-04-24T06:08:43.360Z,99.90
2023-04-24T06:11:10.400Z,99.90
2023-04-24T06:13:37.283Z,99.90
2023-04-24T06:16:06.162Z,99.90
2023-04-24T06:18:33.154Z,99.90
2023-04-24T06:21:00.316Z,99.90
2023-04-24T06:23:27.228Z,99.90
2023-04-24T06:25:54.247Z,99.90
2023-04-24T06:28:21.128Z,99.90
2023-04-24T06:30:48.078Z,99.90
2023-04-24T06:33:21.085Z,99.90
2023-04-24T06:35:49.348Z,99.90
2023-04-24T06:38:16.953Z,99.90
2023-04-24T06:40:43.965Z,99.90
2023-04-24T06:43:11.856Z,99.90
2023-04-24T06:45:40.713Z,99.90
2023-04-24T06:48:07.917Z,99.90
2023-04-24T06:50:34.873Z,99.90
2023-04-24T06:53:01.832Z,99.90
2023-04-24T06:55:28.760Z,99.90
2023-04-24T06:57:55.692Z,98.80
2023-04-24T07:00:24.933Z,97.00
2023-04-24T07:02:51.937Z,98.00
2023-04-24T07:05:20.814Z,99.70
2023-04-24T07:07:49.879Z,99.90
2023-04-24T07:10:16.996Z,99.90
2023-04-24T07:12:43.905Z,99.90
2023-04-24T07:15:11.557Z,99.90
2023-04-24T07:17:39.463Z,99.90
2023-04-24T07:20:10.154Z,99.90
2023-04-24T07:22:38.911Z,99.90
2023-04-24T07:25:06.545Z,99.90
2023-04-24T07:27:35.600Z,99.90
2023-04-24T07:30:05.013Z,99.90
2023-04-24T07:32:32.146Z,99.90
2023-04-24T07:34:59.016Z,99.90
2023-04-24T07:37:26.318Z,99.90
2023-04-24T07:39:53.278Z,99.90
2023-04-24T07:42:20.396Z,99.90
2023-04-24T07:44:48.542Z,99.90
2023-04-24T07:47:16.715Z,99.90
2023-04-24T07:49:43.920Z,99.90
2023-04-24T07:52:11.045Z,99.90
2023-04-24T07:54:38.356Z,99.90
2023-04-24T07:57:07.201Z,99.90
2023-04-24T07:59:34.073Z,99.90
2023-04-24T08:03:54.669Z,99.90
2023-04-24T08:06:21.696Z,99.90
2023-04-24T08:08:48.639Z,99.90
2023-04-24T08:11:15.732Z,98.60
2023-04-24T08:13:42.642Z,97.20
2023-04-24T08:16:09.655Z,96.50
2023-04-24T08:18:36.954Z,94.80
2023-04-24T08:21:04.325Z,95.00
2023-04-24T08:23:31.316Z,95.70
2023-04-24T08:25:58.704Z,93.90
2023-04-24T08:28:26.805Z,94.40
2023-04-24T08:30:55.540Z,93.10
2023-04-24T08:33:25.734Z,92.90
2023-04-24T08:35:53.689Z,92.80
2023-04-24T08:38:20.804Z,93.40
2023-04-24T08:40:50.482Z,91.90
2023-04-24T08:43:18.349Z,92.10
2023-04-24T08:45:45.699Z,91.80
2023-04-24T08:48:27.442Z,91.40
2023-04-24T08:50:59.955Z,91.80
2023-04-24T08:53:28.233Z,92.20
2023-04-24T08:55:57.639Z,92.50
2023-04-24T08:58:27.510Z,91.00
2023-04-24T09:00:59.391Z,85.60
2023-04-24T09:03:32.826Z,87.30
2023-04-24T09:06:01.182Z,84.80
2023-04-24T09:08:31.697Z,85.70
2023-04-24T09:10:59.863Z,87.20
2023-04-24T09:13:27.688Z,83.40
2023-04-24T09:15:55.192Z,82.30
2023-04-24T09:18:22.088Z,82.80
2023-04-24T09:21:10.118Z,79.70
2023-04-24T09:23:37.354Z,79.10
2023-04-24T09:26:08.567Z,77.80
2023-04-24T09:28:41.602Z,78.00
2023-04-24T09:31:15.624Z,76.60
2023-04-24T09:34:09.056Z,76.50
2023-04-24T09:36:43.458Z,78.40
2023-04-24T09:39:16.254Z,76.70
2023-04-24T09:41:49.820Z,78.80
2023-04-24T09:44:25.198Z,77.90
2023-04-24T09:47:00.860Z,77.50
2023-04-24T09:49:31.257Z,77.80
2023-04-24T09:52:07.089Z,74.80
2023-04-24T09:54:34.759Z,77.50
2023-04-24T09:57:01.859Z,75.00
2023-04-24T09:59:28.962Z,75.00
2023-04-24T10:01:57.811Z,76.30
2023-04-24T10:04:28.727Z,76.70
2023-04-24T10:06:58.418Z,77.50
2023-04-24T10:09:27.650Z,77.70
2023-04-24T10:11:56.093Z,77.00
2023-04-24T10:14:26.731Z,77.10
2023-04-24T10:16:59.630Z,77.20
2023-04-24T10:19:27.574Z,77.60
2023-04-24T10:21:57.050Z,77.10
2023-04-24T10:24:23.950Z,78.20
2023-04-24T10:26:50.874Z,77.40
2023-04-24T10:29:20.127Z,77.20
2023-04-24T10:31:47.619Z,77.40
2023-04-24T10:34:21.229Z,78.10
2023-04-24T10:36:58.116Z,77.80
2023-04-24T10:39:27.175Z,75.10
2023-04-24T10:41:58.781Z,73.20
2023-04-24T10:44:26.295Z,67.90
2023-04-24T10:46:57.244Z,65.50
2023-04-24T10:49:32.905Z,65.70
2023-04-24T10:52:07.946Z,69.20
2023-04-24T10:54:48.209Z,66.40
2023-04-24T10:57:23.990Z,66.90
2023-04-24T11:00:13.267Z,66.30
2023-04-24T11:02:49.273Z,63.40
2023-04-24T11:05:18.654Z,63.90
2023-04-24T11:08:12.857Z,62.60
2023-04-24T11:10:45.703Z,62.90
2023-04-24T11:13:23.431Z,62.00
2023-04-24T11:16:26.897Z,58.20
2023-04-24T11:19:09.450Z,54.80
2023-04-24T11:22:14.647Z,56.10
2023-04-24T11:24:54.053Z,54.60
2023-04-24T11:27:23.456Z,53.10
2023-04-24T11:30:02.658Z,52.20
2023-04-24T11:32:43.341Z,50.30
2023-04-24T11:35:29.473Z,53.20
2023-04-24T11:40:26.970Z,64.10
2023-04-24T11:42:58.307Z,65.80
2023-04-24T11:45:29.327Z,66.50
2023-04-24T11:47:56.811Z,66.60
2023-04-24T11:50:28.575Z,66.40
2023-04-24T11:52:56.788Z,65.30
2023-04-24T11:55:27.511Z,64.10
2023-04-24T11:57:59.434Z,62.30
2023-04-24T12:00:34.541Z,59.30
2023-04-24T12:03:13.228Z,56.70
2023-04-24T12:05:41.321Z,58.90
2023-04-24T12:08:08.433Z,60.00
2023-04-24T12:10:37.436Z,61.40
2023-04-24T12:13:04.552Z,61.30
2023-04-24T12:15:31.613Z,61.60
2023-04-24T12:17:58.760Z,61.00
2023-04-24T12:20:31.052Z,62.00
2023-04-24T12:23:01.747Z,62.80
2023-04-24T12:25:32.295Z,63.40
2023-04-24T12:28:05.134Z,64.20
2023-04-24T12:30:36.248Z,65.40
2023-04-24T12:33:04.519Z,65.90
2023-04-24T12:35:34.953Z,65.20
2023-04-24T12:38:12.350Z,64.40
2023-04-24T12:40:39.432Z,65.20
2023-04-24T12:43:18.450Z,65.40
2023-04-24T12:45:46.330Z,64.10
2023-04-24T12:48:14.974Z,64.70
2023-04-24T12:50:46.484Z,64.50
2023-04-24T12:53:16.256Z,63.50
2023-04-24T12:55:43.563Z,62.50
2023-04-24T12:58:10.431Z,62.70
2023-04-24T13:00:38.250Z,61.10
2023-04-24T13:03:05.934Z,60.40
2023-04-24T13:05:32.962Z,61.20
2023-04-24T13:07:59.884Z,62.10
2023-04-24T13:10:26.819Z,62.50
2023-04-24T13:12:53.752Z,61.70
2023-04-24T13:15:20.986Z,60.80
2023-04-24T13:17:47.829Z,59.80
2023-04-24T13:20:14.755Z,59.60
2023-04-24T13:22:41.930Z,60.90
2023-04-24T13:25:10.102Z,60.70
2023-04-24T13:27:39.873Z,59.70
2023-04-24T13:30:08.277Z,59.70
2023-04-24T13:32:36.206Z,60.40
2023-04-24T13:35:03.432Z,59.90
2023-04-24T13:37:30.369Z,59.50
2023-04-24T13:39:57.241Z,60.20
2023-04-24T13:42:24.234Z,61.00
2023-04-24T13:44:52.081Z,61.20
2023-04-24T13:47:19.112Z,62.50
2023-04-24T13:49:46.055Z,63.40
2023-04-24T13:52:12.935Z,65.30
2023-04-24T13:54:39.816Z,66.90
2023-04-24T13:57:06.794Z,70.10
2023-04-24T13:59:34.140Z,70.60
2023-04-24T14:02:01.154Z,70.20
2023-04-24T14:04:28.423Z,71.20
2023-04-24T14:06:55.573Z,70.80
2023-04-24T14:09:22.460Z,69.60
2023-04-24T14:11:49.373Z,69.60
2023-04-24T14:14:16.850Z,69.10
2023-04-24T14:16:43.747Z,69.70
2023-04-24T14:19:10.616Z,69.40
2023-04-24T14:21:37.471Z,70.70
2023-04-24T14:24:04.481Z,71.10
2023-04-24T14:26:31.482Z,71.40
2023-04-24T14:29:11.546Z,71.40
2023-04-24T14:31:41.832Z,71.50
2023-04-24T14:34:08.784Z,70.60
2023-04-24T14:36:36.163Z,69.00
2023-04-24T14:39:07.275Z,66.50
2023-04-24T14:41:36.498Z,62.60
2023-04-24T14:44:04.888Z,60.90
2023-04-24T14:46:32.353Z,60.70
2023-04-24T14:48:59.412Z,58.60
2023-04-24T14:51:26.485Z,58.60
2023-04-24T14:53:53.905Z,60.20
2023-04-24T14:56:21.106Z,60.60
2023-04-24T14:58:48.181Z,61.50
2023-04-24T15:01:17.726Z,63.00
2023-04-24T15:03:45.705Z,65.20
2023-04-24T15:06:13.163Z,67.40
2023-04-24T15:08:40.042Z,70.40
2023-04-24T15:11:07.206Z,73.90
2023-04-24T15:13:34.101Z,75.30
2023-04-24T15:16:01.264Z,80.80
2023-04-24T15:18:29.730Z,85.00
2023-04-24T15:20:57.625Z,90.00
2023-04-24T15:23:24.520Z,90.90
2023-04-24T15:25:51.588Z,93.00
2023-04-24T15:28:18.848Z,94.70
2023-04-24T15:30:45.952Z,94.80
2023-04-24T15:33:12.925Z,94.00
2023-04-24T15:35:40.034Z,94.30
2023-04-24T15:38:07.104Z,93.80
2023-04-24T15:40:34.169Z,93.50
2023-04-24T15:43:01.267Z,93.40
2023-04-24T15:45:28.221Z,91.90
2023-04-24T15:47:55.929Z,91.30
2023-04-24T15:50:23.790Z,90.30
2023-04-24T15:52:50.787Z,90.90
2023-04-24T15:55:17.812Z,85.80
2023-04-24T15:57:44.939Z,81.50
2023-04-24T16:00:13.624Z,77.40
2023-04-24T16:02:41.085Z,75.40
2023-04-24T16:05:08.782Z,76.20
2023-04-24T16:07:39.045Z,76.80
2023-04-24T16:10:06.993Z,77.00
2023-04-24T16:12:34.566Z,77.30
2023-04-24T16:15:01.868Z,78.70
2023-04-24T16:17:28.735Z,78.50
2023-04-24T16:19:55.629Z,74.80
2023-04-24T16:22:22.589Z,70.40
2023-04-24T16:24:49.478Z,67.20
2023-04-24T16:27:16.398Z,67.50
2023-04-24T16:29:43.395Z,68.00
2023-04-24T16:32:10.986Z,68.00
2023-04-24T16:34:37.995Z,68.40
2023-04-24T16:37:06.585Z,68.00
2023-04-24T16:39:34.808Z,69.80
2023-04-24T16:42:01.753Z,71.00
2023-04-24T16:44:28.684Z,71.40
2023-04-24T16:46:55.800Z,72.30
2023-04-24T16:49:23.750Z,71.70
2023-04-24T16:51:51.083Z,72.40
2023-04-24T16:54:18.103Z,72.90
2023-04-24T16:56:45.148Z,71.50
2023-04-24T16:59:12.323Z,71.60
2023-04-24T17:01:39.225Z,71.80
2023-04-24T17:04:06.488Z,71.30
2023-04-24T17:06:33.661Z,71.60
2023-04-24T17:09:00.698Z,72.00
2023-04-24T17:11:29.878Z,71.70
2023-04-24T17:14:01.455Z,72.30
2023-04-24T17:16:29.259Z,71.80
2023-04-24T17:18:56.249Z,70.50
2023-04-24T17:21:23.459Z,70.20
2023-04-24T17:23:50.328Z,69.10
2023-04-24T17:26:17.317Z,69.90
2023-04-24T17:28:44.260Z,68.90
2023-04-24T17:31:11.226Z,69.50
2023-04-24T17:33:38.705Z,69.30
2023-04-24T17:36:07.158Z,70.20
2023-04-24T17:38:34.242Z,71.00
2023-04-24T17:41:01.525Z,72.00
2023-04-24T17:43:28.400Z,73.70
2023-04-24T17:45:56.427Z,74.50
2023-04-24T17:48:23.556Z,75.20
2023-04-24T17:50:50.703Z,76.00
2023-04-24T17:53:18.912Z,76.80
2023-04-24T17:55:46.568Z,76.90
2023-04-24T17:58:14.228Z,77.30
2023-04-24T18:00:41.997Z,77.60
2023-04-24T18:03:13.616Z,78.10
2023-04-24T18:05:40.933Z,78.20
2023-04-24T18:08:07.802Z,78.50
2023-04-24T18:10:37.754Z,78.20
2023-04-24T18:13:05.548Z,78.50
2023-04-24T18:15:32.677Z,78.50
2023-04-24T18:17:59.796Z,78.60
2023-04-24T18:20:27.422Z,78.60
2023-04-24T18:22:54.734Z,79.10
2023-04-24T18:25:26.523Z,79.00
2023-04-24T18:27:54.780Z,79.70
2023-04-24T18:30:23.861Z,80.50
2023-04-24T18:32:53.258Z,81.00
2023-04-24T18:35:21.417Z,79.70
2023-04-24T18:37:48.921Z,78.80
2023-04-24T18:40:17.296Z,79.10
2023-04-24T18:42:45.051Z,79.40
2023-04-24T18:45:14.897Z,80.20
2023-04-24T18:47:43.466Z,80.00
2023-04-24T18:50:11.739Z,80.50
2023-04-24T18:52:39.153Z,80.90
2023-04-24T18:55:07.366Z,81.40
2023-04-24T18:57:34.542Z,81.70
2023-04-24T19:00:01.610Z,82.10
2023-04-24T19:02:28.746Z,82.40
2023-04-24T19:04:55.838Z,82.50
2023-04-24T19:07:22.927Z,82.80
2023-04-24T19:09:49.772Z,83.30
2023-04-24T19:12:17.573Z,83.40
2023-04-24T19:14:46.145Z,84.00
2023-04-24T19:17:13.193Z,84.90
2023-04-24T19:19:40.126Z,85.50
2023-04-24T19:22:07.589Z,86.00
2023-04-24T19:24:34.731Z,86.30
2023-04-24T19:27:02.106Z,86.70
2023-04-24T19:29:29.148Z,86.90
2023-04-24T19:31:57.697Z,87.40
2023-04-24T19:34:25.931Z,87.50
2023-04-24T19:36:53.212Z,87.80
2023-04-24T19:39:20.120Z,88.00
2023-04-24T19:41:47.115Z,88.50
2023-04-24T19:44:15.429Z,88.70
2023-04-24T19:46:42.603Z,89.20
2023-04-24T19:49:09.618Z,89.50
2023-04-24T19:51:37.408Z,90.00
2023-04-24T19:54:06.135Z,90.40
2023-04-24T19:56:33.822Z,90.60
2023-04-24T19:59:00.951Z,91.00
2023-04-24T20:01:28.152Z,91.60
2023-04-24T20:03:55.409Z,91.80
2023-04-24T20:06:22.493Z,92.40
2023-04-24T20:08:49.621Z,93.00
2023-04-24T20:11:17.100Z,93.40
2023-04-24T20:13:44.148Z,93.70
2023-04-24T20:16:11.542Z,93.90
2023-04-24T20:18:38.794Z,94.40
2023-04-24T20:21:05.773Z,95.30
2023-04-24T20:23:32.795Z,96.30
2023-04-24T20:25:59.877Z,96.70
2023-04-24T20:28:29.922Z,96.90
2023-04-24T20:30:58.922Z,97.20
2023-04-24T20:33:27.796Z,97.50
2023-04-24T20:35:54.799Z,97.80
2023-04-24T20:38:22.677Z,97.90
2023-04-24T20:40:57.837Z,98.20
2023-04-24T20:43:29.554Z,99.00
2023-04-24T20:45:57.830Z,99.50
2023-04-24T20:48:26.376Z,99.90
2023-04-24T20:50:54.023Z,99.90
2023-04-24T20:53:21.478Z,99.90
2023-04-24T20:55:48.900Z,99.90
2023-04-24T20:58:21.889Z,99.90
2023-04-24T21:00:49.608Z,99.90
2023-04-24T21:03:16.699Z,99.90
2023-04-24T21:05:43.652Z,99.90
2023-04-24T21:08:10.615Z,99.90
2023-04-24T21:10:37.641Z,99.90
2023-04-24T21:13:04.626Z,99.90
2023-04-24T21:15:31.677Z,99.90
2023-04-24T21:17:58.675Z,99.90
2023-04-24T21:20:25.647Z,99.90
2023-04-24T21:22:52.526Z,99.90
2023-04-24T21:25:19.539Z,99.90
2023-04-24T21:27:46.745Z,99.90
2023-04-24T21:30:13.654Z,99.90
2023-04-24T21:32:40.902Z,99.90
2023-04-24T21:35:08.581Z,99.90
2023-04-24T21:37:37.623Z,99.90
2023-04-24T21:40:05.224Z,99.90
2023-04-24T21:42:32.390Z,99.90
2023-04-24T21:44:59.252Z,99.90
2023-04-24T21:47:26.187Z,99.90
2023-04-24T21:49:53.109Z,99.90
2023-04-24T21:52:20.083Z,99.90
2023-04-24T21:54:46.971Z,99.90
2023-04-24T21:57:13.958Z,99.90
2023-04-24T21:59:41.102Z,99.90
2023-04-24T22:02:08.184Z,99.90
2023-04-24T22:04:35.474Z,99.90
2023-04-24T22:07:02.553Z,99.90
2023-04-24T22:09:29.403Z,99.90
2023-04-24T22:11:56.604Z,99.90
2023-04-24T22:14:23.531Z,99.90
2023-04-24T22:16:50.413Z,99.90
2023-04-24T22:19:17.291Z,99.90
2023-04-24T22:21:44.326Z,99.90
2023-04-24T22:24:11.258Z,99.90
2023-04-24T22:26:38.204Z,99.90
2023-04-24T22:29:05.198Z,99.90
2023-04-24T22:31:32.528Z,99.90
2023-04-24T22:33:59.614Z,99.90
2023-04-24T22:36:26.955Z,99.90
2023-04-24T22:38:54.410Z,99.90
2023-04-24T22:41:21.949Z,99.90
2023-04-24T22:43:49.348Z,99.90
2023-04-24T22:46:17.711Z,99.90
2023-04-24T22:48:45.621Z,99.90
2023-04-24T22:51:12.591Z,99.90
2023-04-24T22:53:39.525Z,99.90
2023-04-24T22:56:07.126Z,99.90
2023-04-24T22:58:34.009Z,99.90
2023-04-24T23:01:01.075Z,99.90
2023-04-24T23:03:28.191Z,99.90
2023-04-24T23:05:55.528Z,99.90
2023-04-24T23:08:22.360Z,99.90
2023-04-24T23:10:49.301Z,99.90
2023-04-24T23:13:16.571Z,99.90
2023-04-24T23:15:43.582Z,99.90
2023-04-24T23:18:11.485Z,99.90
2023-04-24T23:20:38.864Z,99.90
2023-04-24T23:23:05.814Z,99.90
2023-04-24T23:25:32.873Z,99.90
2023-04-24T23:27:59.741Z,99.90
2023-04-24T23:30:26.847Z,99.90
2023-04-24T23:32:53.925Z,99.90
2023-04-24T23:35:21.024Z,99.90
2023-04-24T23:37:48.126Z,99.90
2023-04-24T23:40:15.188Z,99.90
2023-04-24T23:42:42.210Z,99.90
2023-04-24T23:45:10.845Z,99.90
2023-04-24T23:47:38.398Z,99.90
2023-04-24T23:50:06.655Z,99.90
2023-04-24T23:52:35.323Z,99.90
2023-04-24T23:55:06.407Z,99.90
2023-04-24T23:57:33.287Z,99.90
